.
WxDataArchive / Data Records for 2009-09-20
2009-09-19 September 2009 2009-09-21

Data Records for Sunday, 20 September 2009

Time	Temp	Chill	HIndex	Humid	Dewpt	 Wind 	HiWind	WindDir	Rain 	Barom 
-----	----	-----	------	-----	-----	------	------	-------	-----	----- 
00:00	53.8	53.8	53.8	80	47.8	0	2	112	0.00	30.227 
00:05	53.6	53.6	53.6	81	47.9	0	2	112	0.00	30.227 
00:10	53.5	53.5	53.5	81	47.8	0	1	112	0.00	30.227 
00:15	53.3	53.3	53.3	82	47.9	0	1	112	0.00	30.224 
00:20	53.2	53.2	53.2	82	47.8	0	0	---	0.00	30.224 
00:25	53.1	53.1	53.1	83	48.1	0	1	112	0.00	30.224 
00:30	52.9	52.9	52.9	83	47.9	0	0	---	0.00	30.223 
00:35	52.8	52.8	52.8	83	47.8	0	0	---	0.00	30.223 
00:40	52.6	52.6	52.6	84	47.9	0	0	---	0.00	30.223 
00:45	52.6	52.6	52.6	84	47.9	0	1	112	0.00	30.220 
00:50	52.6	52.6	52.6	84	47.9	0	2	112	0.00	30.220 
00:55	52.6	52.6	52.6	84	47.9	0	1	112	0.00	30.220 
01:00	52.6	52.6	52.6	84	47.9	0	1	112	0.00	30.214 
01:05	52.6	52.6	52.6	85	48.2	0	1	112	0.00	30.214 
01:10	52.8	52.8	52.8	85	48.4	1	4	112	0.00	30.214 
01:15	52.8	52.8	52.8	84	48.1	0	2	112	0.00	30.209 
01:20	52.6	52.6	52.6	85	48.2	0	2	112	0.00	30.209 
01:25	52.6	52.6	52.6	85	48.2	0	2	112	0.00	30.209 
01:30	52.5	52.5	52.5	85	48.1	0	2	112	0.00	30.211 
01:35	52.5	52.5	52.5	85	48.1	0	1	112	0.00	30.211 
01:40	52.5	52.5	52.5	85	48.1	0	2	112	0.00	30.211 
01:45	52.5	52.5	52.5	86	48.4	0	1	112	0.00	30.209 
01:50	52.5	52.5	52.5	86	48.4	0	1	112	0.00	30.209 
01:55	52.5	52.5	52.5	86	48.4	0	1	112	0.00	30.209 
02:00	52.5	52.5	52.5	86	48.4	0	4	112	0.00	30.205 
02:05	52.6	52.6	52.6	86	48.5	0	1	112	0.00	30.205 
02:10	52.6	52.6	52.6	86	48.5	0	2	112	0.00	30.205 
02:15	52.6	52.6	52.6	86	48.5	1	3	112	0.00	30.206 
02:20	52.6	52.6	52.6	86	48.5	0	2	90	0.00	30.206 
02:25	52.6	52.6	52.6	86	48.5	0	2	90	0.00	30.206 
02:30	52.6	52.6	52.6	87	48.8	0	2	90	0.00	30.205 
02:35	52.5	52.5	52.5	87	48.7	0	1	90	0.00	30.205 
02:40	52.5	52.5	52.5	87	48.7	0	3	90	0.00	30.205 
02:45	52.5	52.5	52.5	87	48.7	0	1	90	0.00	30.204 
02:50	52.5	52.5	52.5	87	48.7	0	2	90	0.00	30.204 
02:55	52.5	52.5	52.5	87	48.7	1	5	90	0.00	30.204 
03:00	52.5	52.5	52.5	88	49.0	0	2	112	0.00	30.197 
03:05	52.3	52.3	52.3	88	48.9	0	2	68	0.00	30.197 
03:10	52.3	52.3	52.3	88	48.9	0	1	68	0.00	30.197 
03:15	52.2	52.2	52.2	88	48.8	0	2	68	0.00	30.191 
03:20	52.2	52.2	52.2	88	48.8	0	3	68	0.00	30.191 
03:25	52.2	52.2	52.2	89	49.1	0	2	90	0.00	30.191 
03:30	52.2	52.2	52.2	89	49.1	0	4	112	0.00	30.191 
03:35	52.3	52.3	52.3	89	49.2	0	3	112	0.00	30.191 
03:40	52.2	52.2	52.2	89	49.1	0	2	112	0.00	30.191 
03:45	52.2	52.2	52.2	89	49.1	0	1	112	0.00	30.188 
03:50	52.2	52.2	52.2	89	49.1	0	1	112	0.00	30.188 
03:55	52.0	52.0	52.0	89	48.9	0	1	112	0.00	30.188 
04:00	52.0	52.0	52.0	90	49.2	0	2	112	0.00	30.183 
04:05	52.0	52.0	52.0	90	49.2	0	1	112	0.00	30.183 
04:10	52.0	52.0	52.0	90	49.2	0	1	112	0.00	30.183 
04:15	51.9	51.9	51.9	90	49.1	0	1	112	0.00	30.176 
04:20	51.9	51.9	51.9	90	49.1	0	1	112	0.00	30.176 
04:25	51.9	51.9	51.9	90	49.1	0	2	112	0.00	30.176 
04:30	52.0	52.0	52.0	90	49.2	1	4	112	0.00	30.177 
04:35	52.0	52.0	52.0	90	49.2	1	4	112	0.00	30.177 
04:40	52.0	52.0	52.0	90	49.2	0	3	112	0.00	30.177 
04:45	51.9	51.9	51.9	90	49.1	0	1	112	0.00	30.174 
04:50	51.9	51.9	51.9	90	49.1	0	2	112	0.00	30.174 
04:55	51.9	51.9	51.9	90	49.1	0	1	112	0.00	30.174 
05:00	51.9	51.9	51.9	91	49.4	0	1	112	0.00	30.175 
05:05	51.9	51.9	51.9	91	49.4	0	1	112	0.00	30.175 
05:10	51.9	51.9	51.9	91	49.4	0	2	112	0.00	30.175 
05:15	51.9	51.9	51.9	91	49.4	0	5	112	0.00	30.175 
05:20	51.9	51.9	51.9	91	49.4	1	3	90	0.00	30.175 
05:25	51.9	51.9	51.9	91	49.4	0	2	90	0.00	30.175 
05:30	51.9	51.9	51.9	91	49.4	0	1	90	0.00	30.176 
05:35	51.7	51.7	51.7	91	49.2	0	5	90	0.00	30.176 
05:40	51.9	51.9	51.9	91	49.4	0	2	90	0.00	30.176 
05:45	51.9	51.9	51.9	91	49.4	0	2	90	0.00	30.174 
05:50	52.0	52.0	52.0	91	49.5	0	2	90	0.00	30.174 
05:55	52.0	52.0	52.0	91	49.5	0	1	90	0.00	30.174 
06:00	52.0	52.0	52.0	91	49.5	0	3	90	0.00	30.168 
06:05	51.9	51.9	51.9	91	49.4	0	1	90	0.00	30.168 
06:10	51.9	51.9	51.9	91	49.4	0	2	90	0.00	30.168 
06:15	51.9	51.9	51.9	91	49.4	0	2	90	0.00	30.163 
06:20	51.9	51.9	51.9	91	49.4	0	1	90	0.00	30.163 
06:25	51.9	51.9	51.9	91	49.4	0	2	90	0.00	30.163 
06:30	52.0	52.0	52.0	91	49.5	0	2	90	0.00	30.169 
06:35	52.2	52.2	52.2	91	49.7	1	3	68	0.00	30.169 
06:40	52.3	52.3	52.3	90	49.5	1	3	68	0.00	30.169 
06:45	52.5	52.5	52.5	90	49.7	0	3	68	0.00	30.169 
06:50	52.5	52.5	52.5	90	49.7	0	2	68	0.00	30.169 
06:55	52.6	52.6	52.6	89	49.4	0	1	68	0.00	30.169 
07:00	52.6	52.6	52.6	89	49.4	0	3	112	0.00	30.170 
07:05	52.8	52.8	52.8	89	49.6	0	2	112	0.00	30.170 
07:10	52.9	52.9	52.9	88	49.4	1	4	112	0.00	30.170 
07:15	52.9	52.9	52.9	88	49.4	0	3	135	0.00	30.172 
07:20	53.1	53.1	53.1	88	49.6	0	2	135	0.00	30.172 
07:25	53.2	53.2	53.2	88	49.7	1	3	112	0.00	30.172 
07:30	53.2	53.2	53.2	88	49.7	1	3	45	0.00	30.164 
07:35	53.3	53.3	53.3	87	49.5	1	4	112	0.00	30.164 
07:40	53.3	53.3	53.3	87	49.5	2	5	112	0.00	30.164 
07:45	53.3	53.3	53.3	87	49.5	1	4	112	0.00	30.159 
07:50	53.5	53.5	53.5	86	49.4	2	6	112	0.00	30.159 
07:55	53.5	53.5	53.5	86	49.4	1	4	90	0.00	30.159 
08:00	53.6	53.6	53.6	86	49.5	0	2	90	0.00	30.162 
08:05	53.6	53.6	53.6	86	49.5	0	3	90	0.00	30.162 
08:10	53.6	53.6	53.6	85	49.2	0	2	90	0.00	30.162 
08:15	53.8	53.8	53.8	85	49.4	0	3	90	0.00	30.164 
08:20	53.9	53.9	53.9	85	49.5	0	1	90	0.00	30.164 
08:25	54.1	54.1	54.1	84	49.4	1	4	90	0.00	30.164 
08:30	54.2	54.2	54.2	84	49.5	1	4	90	0.00	30.163 
08:35	54.5	54.5	54.5	84	49.8	1	4	90	0.00	30.163 
08:40	54.5	54.5	54.5	83	49.4	2	6	112	0.00	30.163 
08:45	54.7	54.7	54.7	82	49.3	1	3	90	0.00	30.165 
08:50	55.0	55.0	55.0	82	49.6	1	3	112	0.00	30.165 
08:55	55.3	55.3	55.3	81	49.6	2	5	90	0.00	30.165 
09:00	55.7	55.7	55.7	81	50.0	0	2	90	0.00	30.175 
09:05	56.2	56.2	56.2	79	49.8	2	4	90	0.00	30.175 
09:10	56.5	56.5	56.5	79	50.1	2	4	90	0.00	30.175 
09:15	56.6	56.6	56.6	78	49.8	2	9	112	0.00	30.176 
09:20	56.9	56.9	56.9	80	50.8	2	5	112	0.00	30.176 
09:25	57.2	57.2	57.2	78	50.4	3	5	90	0.00	30.176 
09:30	58.0	58.0	58.0	76	50.5	2	6	90	0.00	30.171 
09:35	58.6	58.6	58.6	74	50.3	2	6	90	0.00	30.171 
09:40	59.0	59.0	59.0	73	50.4	3	7	112	0.00	30.171 
09:45	59.3	59.3	59.3	71	49.9	2	6	45	0.00	30.166 
09:50	59.6	59.6	59.6	72	50.6	2	7	68	0.00	30.166 
09:55	59.8	59.8	59.8	71	50.4	2	5	90	0.00	30.166 
10:00	59.9	59.9	59.9	70	50.1	3	6	90	0.00	30.165 
10:05	59.9	59.9	59.9	70	50.1	2	5	90	0.00	30.165 
10:10	60.1	60.1	60.1	71	50.7	2	6	90	0.00	30.165 
10:15	60.2	60.2	60.2	71	50.8	2	6	90	0.00	30.164 
10:20	60.5	60.5	60.5	70	50.7	3	5	90	0.00	30.164 
10:25	60.7	60.7	60.7	70	50.9	3	7	90	0.00	30.164 
10:30	61.0	61.0	61.0	69	50.8	3	7	90	0.00	30.161 
10:35	61.3	61.3	61.3	69	51.0	3	9	90	0.00	30.161 
10:40	61.8	61.8	61.8	70	51.9	2	6	112	0.00	30.161 
10:45	62.4	62.4	62.4	67	51.3	2	7	112	0.00	30.161 
10:50	63.1	63.1	63.1	67	52.0	2	4	90	0.00	30.161 
10:55	63.4	63.4	63.4	66	51.8	2	5	90	0.00	30.161 
11:00	63.5	63.5	63.5	65	51.5	1	5	90	0.00	30.160 
11:05	63.5	63.5	63.5	66	51.9	1	3	90	0.00	30.160 
11:10	63.7	63.7	63.7	65	51.7	2	5	112	0.00	30.160 
11:15	63.7	63.7	63.7	65	51.7	1	4	90	0.00	30.153 
11:20	63.9	63.9	63.9	66	52.3	1	3	90	0.00	30.153 
11:25	64.2	64.2	64.2	66	52.6	1	3	90	0.00	30.153 
11:30	64.3	64.3	64.3	65	52.3	1	4	112	0.00	30.148 
11:35	64.5	64.5	64.5	65	52.5	1	4	112	0.00	30.148 
11:40	64.8	64.8	64.8	65	52.8	1	3	112	0.00	30.148 
11:45	65.2	65.2	65.2	64	52.7	2	5	90	0.00	30.141 
11:50	65.5	65.5	65.5	65	53.4	1	4	90	0.00	30.141 
11:55	66.0	66.0	66.0	63	53.0	1	3	90	0.00	30.141 
12:00	66.3	66.3	66.3	64	53.7	1	3	90	0.00	30.136 
12:05	66.8	66.8	66.8	62	53.4	1	4	90	0.00	30.136 
12:10	66.9	66.9	66.9	63	53.9	2	7	90	0.00	30.136 
12:15	67.3	67.3	67.3	63	54.3	2	7	90	0.00	30.134 
12:20	67.6	67.6	67.6	60	53.2	2	10	90	0.00	30.134 
12:25	67.9	67.9	67.9	59	53.0	3	6	90	0.00	30.134 
12:30	68.1	68.1	68.1	59	53.2	2	5	90	0.00	30.128 
12:35	68.3	68.3	68.3	59	53.4	1	4	112	0.00	30.128 
12:40	68.6	68.6	68.6	57	52.7	3	9	90	0.00	30.128 
12:45	68.8	68.8	68.8	58	53.4	2	5	112	0.00	30.116 
12:50	68.9	68.9	68.9	57	53.0	3	7	90	0.00	30.116 
12:55	69.4	69.4	69.4	55	52.5	3	6	90	0.00	30.116 
13:00	70.1	70.1	70.1	58	54.6	1	6	90	0.00	30.118 
13:05	70.6	70.6	70.6	56	54.1	2	7	112	0.00	30.118 
13:10	70.8	70.8	70.8	54	53.3	3	9	90	0.00	30.118 
13:15	71.3	71.3	71.3	54	53.8	2	7	90	0.00	30.109 
13:20	71.6	71.6	71.6	53	53.5	3	9	68	0.00	30.109 
13:25	72.0	72.0	72.0	53	53.9	2	5	112	0.00	30.109 
13:30	72.7	72.7	72.7	52	54.0	2	5	90	0.00	30.104 
13:35	73.0	73.0	73.0	52	54.3	2	6	90	0.00	30.104 
13:40	73.0	73.0	73.0	50	53.2	3	7	90	0.00	30.104 
13:45	73.0	73.0	73.0	51	53.8	3	7	90	0.00	30.106 
13:50	73.3	73.3	73.3	50	53.5	2	6	90	0.00	30.106 
13:55	73.5	73.5	73.5	50	53.7	3	6	112	0.00	30.106 
14:00	73.9	73.9	73.9	52	55.1	2	5	90	0.00	30.098 
14:05	73.9	73.9	73.9	50	54.1	2	4	90	0.00	30.098 
14:10	73.9	73.9	73.9	50	54.1	2	5	90	0.00	30.098 
14:15	73.9	73.9	73.9	50	54.1	3	9	112	0.00	30.092 
14:20	73.7	73.7	73.7	50	53.9	4	9	90	0.00	30.092 
14:25	74.0	74.0	74.0	50	54.2	3	10	90	0.00	30.092 
14:30	74.2	74.2	74.2	52	55.4	1	6	90	0.00	30.083 
14:35	74.0	74.0	74.0	51	54.7	2	5	90	0.00	30.083 
14:40	73.9	73.9	73.9	51	54.6	2	5	90	0.00	30.083 
14:45	73.7	73.7	73.7	52	55.0	2	4	90	0.00	30.082 
14:50	73.7	73.7	73.7	52	55.0	1	2	68	0.00	30.082 
14:55	73.7	73.7	73.7	53	55.5	1	2	68	0.00	30.082 
15:00	73.7	73.7	73.7	53	55.5	1	3	68	0.00	30.077 
15:05	73.9	73.9	73.9	54	56.2	1	4	68	0.00	30.077 
15:10	74.0	74.0	74.0	54	56.3	2	7	90	0.00	30.077 
15:15	74.0	74.0	74.0	54	56.3	2	4	90	0.00	30.067 
15:20	74.2	74.2	74.2	55	57.0	1	3	90	0.00	30.067 
15:25	74.6	74.6	74.6	55	57.3	2	4	90	0.00	30.067 
15:30	74.9	74.9	74.9	56	58.1	2	5	90	0.00	30.062 
15:35	74.9	74.9	74.9	58	59.1	3	7	90	0.00	30.062 
15:40	74.7	74.7	74.7	60	59.9	2	9	90	0.00	30.062 
15:45	74.7	74.7	74.7	62	60.8	2	5	112	0.00	30.054 
15:50	74.6	74.6	74.6	62	60.7	1	4	135	0.00	30.054 
15:55	74.4	74.4	74.4	63	61.0	2	6	90	0.00	30.054 
16:00	74.4	74.4	74.4	64	61.4	2	4	112	0.00	30.049 
16:05	74.4	74.4	74.4	65	61.8	1	4	90	0.00	30.049 
16:10	74.4	74.4	74.4	66	62.3	2	7	90	0.00	30.049 
16:15	74.4	74.4	74.4	66	62.3	1	3	90	0.00	30.046 
16:20	74.4	74.4	74.4	66	62.3	1	4	135	0.00	30.046 
16:25	74.4	74.4	74.4	66	62.3	1	4	90	0.00	30.046 
16:30	74.2	74.2	74.2	66	62.1	1	5	90	0.00	30.044 
16:35	74.2	74.2	74.2	66	62.1	1	4	135	0.00	30.044 
16:40	74.2	74.2	74.2	70	63.8	0	2	135	0.00	30.044 
16:45	73.7	73.7	73.7	70	63.3	1	4	135	0.00	30.041 
16:50	73.5	73.5	73.5	71	63.5	1	6	90	0.00	30.041 
16:55	73.3	73.3	73.3	71	63.3	0	2	112	0.00	30.041 
17:00	73.3	73.3	73.3	72	63.7	0	2	180	0.00	30.034 
17:05	73.3	73.3	73.3	72	63.7	1	3	158	0.00	30.034 
17:10	73.3	73.3	73.3	72	63.7	0	3	158	0.00	30.034 
17:15	73.5	73.5	73.5	72	63.9	0	2	112	0.00	30.036 
17:20	73.3	73.3	73.3	72	63.7	2	4	90	0.00	30.036 
17:25	73.3	73.3	73.3	73	64.1	1	3	90	0.00	30.036 
17:30	73.3	73.3	73.3	73	64.1	1	3	90	0.00	30.028 
17:35	73.3	73.3	73.3	73	64.1	1	3	90	0.00	30.028 
17:40	73.5	73.5	73.5	73	64.3	2	6	112	0.00	30.028 
17:45	73.5	73.5	73.5	74	64.7	1	4	112	0.00	30.023 
17:50	73.5	73.5	73.5	74	64.7	1	4	68	0.00	30.023 
17:55	73.7	73.7	73.7	75	65.3	2	4	90	0.00	30.023 
18:00	73.7	73.7	73.7	76	65.6	1	3	90	0.00	30.021 
18:05	73.9	73.9	73.9	75	65.5	1	4	135	0.00	30.021 
18:10	73.9	73.9	73.9	76	65.8	1	6	90	0.00	30.021 
18:15	73.7	73.7	73.7	76	65.6	1	4	90	0.00	30.024 
18:20	73.5	73.5	73.5	77	65.8	1	4	90	0.00	30.024 
18:25	73.5	73.5	73.5	77	65.8	1	2	90	0.00	30.024 
18:30	73.3	73.3	73.3	78	66.0	1	2	90	0.00	30.017 
18:35	73.3	73.3	73.3	78	66.0	1	3	90	0.00	30.017 
18:40	73.3	73.3	73.3	78	66.0	1	4	90	0.00	30.017 
18:45	73.3	73.3	73.3	78	66.0	1	4	90	0.00	30.020 
18:50	73.3	73.3	73.3	78	66.0	0	2	90	0.00	30.020 
18:55	73.3	73.3	73.3	79	66.4	1	3	90	0.00	30.020 
19:00	73.2	73.2	73.2	79	66.3	1	3	90	0.00	30.017 
19:05	73.0	73.0	73.0	79	66.1	0	2	90	0.00	30.017 
19:10	73.0	73.0	73.0	78	65.7	0	1	90	0.00	30.017 
19:15	73.0	73.0	73.0	78	65.7	0	3	90	0.00	30.014 
19:20	73.0	73.0	73.0	78	65.7	1	5	90	0.00	30.014 
19:25	72.8	72.8	72.8	78	65.5	0	4	90	0.00	30.014 
19:30	72.8	72.8	72.8	78	65.5	0	2	90	0.00	30.012 
19:35	72.8	72.8	72.8	78	65.5	1	4	90	0.00	30.012 
19:40	72.8	72.8	72.8	78	65.5	2	5	90	0.00	30.012 
19:45	72.8	72.8	72.8	78	65.5	1	4	90	0.00	30.006 
19:50	72.7	72.7	72.7	78	65.4	1	4	90	0.00	30.006 
19:55	72.7	72.7	72.7	79	65.8	0	3	90	0.00	30.006 
20:00	72.5	72.5	72.5	79	65.6	1	5	90	0.00	29.998 
20:05	72.5	72.5	72.5	79	65.6	1	3	90	0.00	29.998 
20:10	72.5	72.5	72.5	79	65.6	1	4	90	0.00	29.998 
20:15	72.3	72.3	72.3	79	65.4	0	3	90	0.00	29.997 
20:20	72.3	72.3	72.3	80	65.8	1	3	90	0.00	29.997 
20:25	72.1	72.1	72.1	80	65.6	0	2	90	0.00	29.997 
20:30	72.1	72.1	72.1	80	65.6	1	3	90	0.00	29.998 
20:35	72.0	72.0	72.0	82	66.2	1	4	90	0.00	29.998 
20:40	71.5	71.5	71.5	84	66.4	1	4	90	0.00	29.998 
20:45	71.1	71.1	71.1	85	66.4	1	2	90	0.02	30.002 
20:50	70.8	70.8	70.8	87	66.7	1	2	68	0.02	30.002 
20:55	70.3	70.3	70.3	88	66.6	0	2	90	0.00	30.002 
21:00	69.9	69.9	69.9	89	66.5	1	2	90	0.00	30.006 
21:05	69.6	69.6	69.6	90	66.5	0	2	90	0.00	30.006 
21:10	69.4	69.4	69.4	91	66.7	0	1	90	0.01	30.006 
21:15	69.3	69.3	69.3	91	66.6	0	2	90	0.01	30.006 
21:20	69.1	69.1	69.1	92	66.7	1	2	90	0.03	30.006 
21:25	68.9	68.9	68.9	92	66.5	1	5	90	0.01	30.006 
21:30	68.9	68.9	68.9	92	66.5	0	1	90	0.00	30.005 
21:35	68.8	68.8	68.8	93	66.7	0	2	90	0.01	30.005 
21:40	68.6	68.6	68.6	93	66.5	1	3	90	0.00	30.005 
21:45	68.6	68.6	68.6	93	66.5	1	8	135	0.00	30.007 
21:50	68.6	68.6	68.6	93	66.5	1	6	112	0.00	30.007 
21:55	68.4	68.4	68.4	93	66.3	2	5	68	0.00	30.007 
22:00	68.4	68.4	68.4	94	66.6	1	5	112	0.00	30.005 
22:05	68.4	68.4	68.4	94	66.6	1	3	112	0.00	30.005 
22:10	68.3	68.3	68.3	94	66.5	1	4	112	0.00	30.005 
22:15	68.3	68.3	68.3	94	66.5	1	4	112	0.00	29.992 
22:20	68.3	68.3	68.3	94	66.5	2	6	90	0.00	29.992 
22:25	68.3	68.3	68.3	94	66.5	0	3	90	0.00	29.992 
22:30	68.3	68.3	68.3	94	66.5	1	7	90	0.00	29.993 
22:35	68.1	68.1	68.1	95	66.6	2	4	90	0.00	29.993 
22:40	68.1	68.1	68.1	95	66.6	1	4	112	0.00	29.993 
22:45	68.1	68.1	68.1	95	66.6	1	4	112	0.00	29.992 
22:50	68.1	68.1	68.1	95	66.6	1	5	112	0.00	29.992 
22:55	68.1	68.1	68.1	95	66.6	0	3	90	0.00	29.992 
23:00	68.1	68.1	68.1	95	66.6	1	4	90	0.00	29.992 
23:05	68.1	68.1	68.1	95	66.6	1	5	112	0.00	29.992 
23:10	68.1	68.1	68.1	95	66.6	2	5	112	0.00	29.992 
23:15	68.1	68.1	68.1	95	66.6	1	3	135	0.00	29.989 
23:20	68.1	68.1	68.1	95	66.6	0	3	112	0.00	29.989 
23:25	68.3	68.3	68.3	95	66.8	0	3	112	0.00	29.989 
23:30	68.3	68.3	68.3	95	66.8	1	2	112	0.01	29.988 
23:35	68.3	68.3	68.3	95	66.8	1	3	112	0.00	29.988 
23:40	68.3	68.3	68.3	95	66.8	1	4	135	0.00	29.988 
23:45	68.3	68.3	68.3	95	66.8	1	3	135	0.00	29.987 
23:50	68.4	68.4	68.4	96	67.2	1	3	90	0.00	29.987 
23:55	68.4	68.4	68.4	95	66.9	1	5	90	0.00	29.987 

CoCoRaHS
IN-AL-39
A2 Web Hosting
Creative Commons License
GoDaddy
search engine by freefind advanced

loaded 2018-11-13 01:56:55 • last modified 2010-11-18 10:43:29
Privacy PolicyDisclaimer
• wx.awcolley.com is powered by PmWiki v.2002016 •
• all content (unless otherwise noted) © 2018 A W Colley